createdAt,value
2018-03-30T00:02:00.358Z,64.80
2018-03-30T00:04:29.029Z,65.00
2018-03-30T00:06:56.990Z,65.00
2018-03-30T00:09:36.632Z,64.90
2018-03-30T00:12:04.493Z,65.00
2018-03-30T00:14:32.484Z,65.00
2018-03-30T00:17:00.329Z,64.80
2018-03-30T00:19:28.738Z,65.00
2018-03-30T00:21:57.513Z,65.70
2018-03-30T00:24:26.482Z,64.50
2018-03-30T00:26:54.466Z,64.50
2018-03-30T00:29:22.109Z,64.40
2018-03-30T00:31:50.317Z,64.60
2018-03-30T00:34:19.735Z,64.80
2018-03-30T00:36:48.618Z,65.10
2018-03-30T00:39:17.170Z,65.40
2018-03-30T00:41:45.246Z,65.40
2018-03-30T00:44:13.096Z,65.60
2018-03-30T00:46:41.077Z,65.80
2018-03-30T00:49:08.943Z,65.20
2018-03-30T00:51:36.811Z,65.40
2018-03-30T00:54:05.340Z,65.40
2018-03-30T00:56:33.460Z,65.10
2018-03-30T00:59:01.352Z,64.40
2018-03-30T01:01:29.594Z,64.90
2018-03-30T01:03:57.364Z,64.90
2018-03-30T01:06:25.350Z,65.00
2018-03-30T01:08:53.337Z,66.00
2018-03-30T01:11:22.089Z,66.40
2018-03-30T01:13:49.970Z,66.30
2018-03-30T01:16:17.831Z,67.80
2018-03-30T01:18:46.707Z,69.10
2018-03-30T01:21:14.701Z,68.90
2018-03-30T01:23:43.379Z,68.60
2018-03-30T01:26:11.751Z,68.50
2018-03-30T01:28:39.711Z,68.70
2018-03-30T01:31:07.605Z,68.70
2018-03-30T01:33:35.473Z,69.50
2018-03-30T01:36:03.307Z,69.40
2018-03-30T01:38:31.293Z,68.40
2018-03-30T01:40:59.179Z,69.70
2018-03-30T01:43:27.734Z,70.60
2018-03-30T01:45:57.246Z,70.40
2018-03-30T01:48:24.984Z,70.30
2018-03-30T01:50:52.969Z,70.50
2018-03-30T01:53:20.935Z,70.50
2018-03-30T01:55:48.903Z,71.90
2018-03-30T01:58:16.756Z,71.20
2018-03-30T02:00:44.934Z,70.40
2018-03-30T02:03:12.810Z,70.20
2018-03-30T02:05:40.671Z,70.20
2018-03-30T02:08:08.580Z,70.10
2018-03-30T02:10:37.419Z,70.10
2018-03-30T02:13:05.393Z,70.00
2018-03-30T02:15:33.173Z,70.10
2018-03-30T02:18:02.491Z,67.70
2018-03-30T02:20:31.054Z,68.50
2018-03-30T02:23:00.061Z,67.60
2018-03-30T02:25:28.226Z,67.60
2018-03-30T02:27:55.875Z,68.00
2018-03-30T02:30:23.745Z,68.90
2018-03-30T02:32:51.820Z,69.00
2018-03-30T02:35:19.585Z,69.30
2018-03-30T02:37:47.467Z,70.00
2018-03-30T02:40:15.421Z,70.90
2018-03-30T02:42:43.424Z,71.40
2018-03-30T02:45:12.090Z,71.50
2018-03-30T02:47:40.755Z,72.50
2018-03-30T02:50:08.813Z,72.50
2018-03-30T02:52:36.597Z,73.70
2018-03-30T02:55:04.482Z,73.90
2018-03-30T02:57:33.146Z,75.20
2018-03-30T03:00:02.325Z,77.30
2018-03-30T03:02:30.305Z,76.40
2018-03-30T03:04:58.152Z,76.90
2018-03-30T03:07:25.928Z,77.10
2018-03-30T03:09:53.828Z,76.70
2018-03-30T03:12:22.582Z,77.30
2018-03-30T03:14:50.572Z,77.30
2018-03-30T03:17:19.655Z,77.50
2018-03-30T03:19:48.535Z,78.20
2018-03-30T03:22:16.204Z,77.70
2018-03-30T03:24:44.076Z,77.50
2018-03-30T03:27:12.085Z,79.00
2018-03-30T03:29:40.215Z,78.80
2018-03-30T03:32:08.282Z,79.30
2018-03-30T03:34:36.164Z,78.60
2018-03-30T03:37:04.025Z,78.80
2018-03-30T03:39:31.980Z,79.10
2018-03-30T03:42:00.053Z,79.70
2018-03-30T03:44:27.949Z,79.70
2018-03-30T03:46:56.684Z,80.10
2018-03-30T03:49:24.658Z,80.10
2018-03-30T03:51:52.943Z,80.00
2018-03-30T03:54:21.028Z,80.60
2018-03-30T03:56:49.506Z,80.70
2018-03-30T03:59:17.662Z,81.00
2018-03-30T04:01:45.839Z,81.40
2018-03-30T04:04:13.613Z,81.60
2018-03-30T04:06:42.910Z,82.70
2018-03-30T04:09:10.762Z,82.50
2018-03-30T04:11:38.749Z,83.20
2018-03-30T04:14:07.014Z,84.00
2018-03-30T04:16:34.900Z,84.40
2018-03-30T04:19:02.759Z,84.90
2018-03-30T04:21:30.792Z,85.90
2018-03-30T04:23:59.247Z,85.10
2018-03-30T04:26:27.887Z,85.30
2018-03-30T04:28:55.736Z,85.30
2018-03-30T04:31:24.035Z,85.40
2018-03-30T04:33:52.024Z,85.40
2018-03-30T04:36:20.791Z,86.60
2018-03-30T04:38:48.660Z,86.60
2018-03-30T04:41:17.333Z,86.20
2018-03-30T04:43:46.012Z,86.40
2018-03-30T04:46:13.884Z,86.40
2018-03-30T04:48:41.857Z,86.00
2018-03-30T04:51:09.607Z,85.90
2018-03-30T04:53:39.959Z,86.30
2018-03-30T04:56:11.432Z,86.10
2018-03-30T04:58:42.823Z,86.00
2018-03-30T05:01:12.222Z,85.90
2018-03-30T05:03:41.008Z,85.30
2018-03-30T05:06:10.863Z,85.20
2018-03-30T05:08:40.311Z,85.70
2018-03-30T05:11:08.358Z,85.40
2018-03-30T05:13:37.605Z,86.80
2018-03-30T05:16:05.568Z,86.70
2018-03-30T05:18:33.752Z,86.90
2018-03-30T05:21:01.961Z,86.70
2018-03-30T05:23:30.844Z,86.40
2018-03-30T05:25:59.113Z,86.40
2018-03-30T05:28:28.004Z,85.60
2018-03-30T05:30:56.041Z,84.30
2018-03-30T05:33:24.034Z,82.80
2018-03-30T05:35:52.433Z,81.40
2018-03-30T05:38:21.757Z,78.80
2018-03-30T05:40:49.662Z,78.60
2018-03-30T05:43:17.732Z,77.30
2018-03-30T05:45:46.733Z,74.80
2018-03-30T05:48:14.589Z,73.10
2018-03-30T05:50:42.898Z,72.30
2018-03-30T05:53:11.774Z,71.20
2018-03-30T05:55:39.732Z,71.00
2018-03-30T05:58:07.619Z,69.80
2018-03-30T06:00:36.299Z,68.60
2018-03-30T06:03:04.140Z,68.60
2018-03-30T06:05:32.056Z,66.80
2018-03-30T06:08:01.054Z,66.10
2018-03-30T06:10:29.480Z,66.00
2018-03-30T06:12:57.682Z,65.90
2018-03-30T06:15:25.534Z,65.80
2018-03-30T06:17:53.510Z,65.80
2018-03-30T06:20:21.567Z,63.10
2018-03-30T06:22:49.546Z,59.50
2018-03-30T06:25:19.046Z,59.00
2018-03-30T06:27:47.052Z,59.00
2018-03-30T06:30:15.094Z,57.50
2018-03-30T06:32:42.949Z,55.70
2018-03-30T06:35:10.917Z,54.70
2018-03-30T06:37:38.981Z,54.00
2018-03-30T06:40:07.382Z,49.90
2018-03-30T06:42:35.537Z,49.60
2018-03-30T06:45:03.291Z,47.80
2018-03-30T06:47:31.257Z,45.40
2018-03-30T06:49:59.333Z,44.10
2018-03-30T06:52:27.440Z,42.80
2018-03-30T06:54:55.304Z,43.20
2018-03-30T06:57:23.969Z,42.70
2018-03-30T06:59:52.161Z,42.60
2018-03-30T07:02:20.081Z,43.00
2018-03-30T07:04:47.964Z,40.20
2018-03-30T07:07:16.254Z,42.10
2018-03-30T07:09:44.282Z,40.80
2018-03-30T07:12:12.412Z,40.10
2018-03-30T07:14:40.366Z,39.50
2018-03-30T07:17:08.318Z,38.50
2018-03-30T07:19:36.286Z,36.80
2018-03-30T07:22:04.462Z,37.00
2018-03-30T07:24:32.745Z,37.70
2018-03-30T07:27:00.733Z,36.20
2018-03-30T07:29:29.182Z,38.20
2018-03-30T07:31:57.155Z,38.10
2018-03-30T07:34:24.948Z,37.70
2018-03-30T07:36:52.912Z,36.40
2018-03-30T07:39:21.086Z,36.80
2018-03-30T07:41:49.128Z,35.10
2018-03-30T07:44:17.215Z,35.90
2018-03-30T07:46:45.206Z,34.80
2018-03-30T07:49:13.046Z,34.40
2018-03-30T07:51:41.271Z,34.50
2018-03-30T07:54:09.692Z,34.70
2018-03-30T07:56:37.754Z,33.00
2018-03-30T07:59:06.114Z,33.10
2018-03-30T08:01:34.418Z,33.60
2018-03-30T08:04:02.762Z,32.70
2018-03-30T08:06:30.573Z,32.10
2018-03-30T08:08:58.630Z,32.80
2018-03-30T08:11:26.641Z,31.20
2018-03-30T08:13:55.620Z,32.20
2018-03-30T08:16:23.963Z,31.50
2018-03-30T08:18:51.856Z,31.40
2018-03-30T08:21:19.990Z,31.70
2018-03-30T08:23:48.452Z,30.60
2018-03-30T08:26:17.195Z,29.80
2018-03-30T08:28:45.249Z,30.10
2018-03-30T08:31:13.330Z,31.70
2018-03-30T08:33:41.188Z,30.00
2018-03-30T08:36:09.267Z,29.40
2018-03-30T08:38:37.241Z,28.40
2018-03-30T08:41:05.519Z,27.50
2018-03-30T08:43:33.716Z,27.30
2018-03-30T08:46:02.382Z,26.80
2018-03-30T08:48:30.322Z,26.80
2018-03-30T08:50:58.200Z,25.10
2018-03-30T08:53:26.381Z,25.20
2018-03-30T08:55:54.576Z,24.80
2018-03-30T08:58:23.257Z,24.40
2018-03-30T09:00:52.252Z,24.80
2018-03-30T09:03:20.998Z,24.10
2018-03-30T09:05:48.850Z,24.10
2018-03-30T09:08:17.042Z,24.30
2018-03-30T09:10:45.034Z,23.30
2018-03-30T09:13:13.084Z,23.30
2018-03-30T09:15:41.322Z,23.20
2018-03-30T09:18:09.449Z,22.00
2018-03-30T09:20:37.296Z,23.10
2018-03-30T09:23:05.556Z,22.40
2018-03-30T09:25:33.754Z,23.60
2018-03-30T09:28:01.841Z,22.60
2018-03-30T09:30:30.015Z,22.30
2018-03-30T09:32:57.995Z,22.40
2018-03-30T09:35:27.219Z,22.90
2018-03-30T09:37:55.474Z,22.40
2018-03-30T09:40:24.963Z,22.70
2018-03-30T09:42:53.728Z,22.40
2018-03-30T09:45:21.795Z,22.40
2018-03-30T09:47:49.556Z,22.10
2018-03-30T09:50:17.901Z,21.80
2018-03-30T09:52:45.918Z,22.30
2018-03-30T09:55:13.876Z,22.00
2018-03-30T09:57:41.843Z,21.30
2018-03-30T10:00:09.843Z,21.50
2018-03-30T10:02:37.682Z,23.00
2018-03-30T10:05:05.710Z,24.10
2018-03-30T10:07:33.711Z,25.90
2018-03-30T10:10:02.125Z,25.50
2018-03-30T10:12:30.083Z,26.30
2018-03-30T10:14:58.037Z,25.50
2018-03-30T10:17:26.512Z,25.70
2018-03-30T10:19:54.625Z,26.00
2018-03-30T10:22:23.530Z,25.00
2018-03-30T10:24:51.855Z,25.00
2018-03-30T10:27:20.233Z,25.20
2018-03-30T10:29:48.251Z,24.50
2018-03-30T10:32:16.373Z,25.10
2018-03-30T10:34:44.368Z,25.90
2018-03-30T10:37:12.310Z,25.50
2018-03-30T10:39:40.178Z,22.90
2018-03-30T10:42:08.995Z,23.00
2018-03-30T10:44:36.864Z,23.00
2018-03-30T10:47:05.728Z,25.00
2018-03-30T10:49:33.480Z,24.50
2018-03-30T10:52:01.685Z,23.10
2018-03-30T10:54:31.098Z,23.20
2018-03-30T10:57:00.038Z,23.10
2018-03-30T10:59:28.243Z,23.10
2018-03-30T11:01:56.397Z,22.60
2018-03-30T11:04:24.589Z,22.10
2018-03-30T11:06:53.749Z,22.70
2018-03-30T11:09:21.807Z,21.70
2018-03-30T11:11:49.814Z,21.70
2018-03-30T11:14:17.707Z,22.70
2018-03-30T11:16:45.649Z,21.30
2018-03-30T11:19:14.193Z,20.90
2018-03-30T11:21:42.408Z,20.50
2018-03-30T11:24:10.402Z,20.90
2018-03-30T11:26:39.801Z,19.90
2018-03-30T11:29:08.665Z,19.80
2018-03-30T11:31:36.593Z,19.80
2018-03-30T11:34:04.421Z,21.30
2018-03-30T11:36:32.281Z,20.00
2018-03-30T11:39:00.238Z,20.20
2018-03-30T11:41:28.534Z,20.60
2018-03-30T11:43:57.344Z,21.80
2018-03-30T11:46:25.877Z,22.20
2018-03-30T11:48:54.132Z,22.20
2018-03-30T11:51:22.630Z,21.10
2018-03-30T11:53:50.701Z,21.40
2018-03-30T11:56:18.779Z,21.30
2018-03-30T11:58:46.539Z,22.00
2018-03-30T12:01:14.809Z,21.30
2018-03-30T12:03:42.692Z,22.90
2018-03-30T12:06:10.751Z,20.90
2018-03-30T12:08:38.741Z,21.20
2018-03-30T12:11:06.607Z,20.90
2018-03-30T12:13:35.218Z,20.80
2018-03-30T12:16:04.166Z,22.60
2018-03-30T12:18:31.978Z,22.40
2018-03-30T12:21:00.014Z,20.70
2018-03-30T12:23:28.287Z,19.90
2018-03-30T12:25:57.280Z,20.20
2018-03-30T12:28:25.500Z,20.60
2018-03-30T12:30:54.529Z,21.10
2018-03-30T12:33:22.484Z,20.40
2018-03-30T12:35:50.613Z,20.70
2018-03-30T12:38:19.586Z,20.70
2018-03-30T12:40:48.146Z,21.90
2018-03-30T12:43:16.231Z,22.00
2018-03-30T12:45:44.388Z,20.20
2018-03-30T12:48:15.554Z,20.20
2018-03-30T12:50:43.803Z,19.10
2018-03-30T12:53:11.889Z,18.90
2018-03-30T12:55:40.057Z,18.30
2018-03-30T12:58:07.918Z,18.20
2018-03-30T13:00:35.819Z,18.20
2018-03-30T13:03:03.760Z,18.10
2018-03-30T13:05:31.964Z,18.60
2018-03-30T13:08:00.733Z,18.40
2018-03-30T13:10:33.558Z,18.40
2018-03-30T13:13:10.394Z,18.90
2018-03-30T13:15:39.264Z,20.10
2018-03-30T13:18:07.811Z,19.10
2018-03-30T13:20:35.919Z,18.80
2018-03-30T13:23:04.388Z,21.20
2018-03-30T13:25:32.386Z,20.10
2018-03-30T13:28:01.181Z,18.50
2018-03-30T13:30:29.402Z,19.40
2018-03-30T13:32:58.283Z,19.30
2018-03-30T13:35:26.154Z,18.30
2018-03-30T13:37:54.287Z,18.70
2018-03-30T13:40:22.563Z,18.30
2018-03-30T13:42:50.401Z,18.60
2018-03-30T13:45:18.404Z,18.00
2018-03-30T13:47:47.413Z,18.80
2018-03-30T13:50:19.345Z,18.90
2018-03-30T13:53:04.289Z,18.80
2018-03-30T13:55:33.285Z,18.80
2018-03-30T13:58:06.290Z,19.40
2018-03-30T14:00:36.599Z,19.60
2018-03-30T14:03:11.653Z,19.80
2018-03-30T14:09:01.253Z,22.30
2018-03-30T14:11:40.954Z,23.40
2018-03-30T14:14:10.405Z,23.80
2018-03-30T14:19:47.485Z,24.00
2018-03-30T14:25:22.170Z,24.30
2018-03-30T14:28:10.005Z,25.70
2018-03-30T14:30:38.774Z,25.70
2018-03-30T14:33:10.891Z,26.70
2018-03-30T14:35:38.943Z,26.30
2018-03-30T14:38:20.904Z,26.40
2018-03-30T14:40:50.431Z,25.60
2018-03-30T14:43:27.387Z,25.50
2018-03-30T14:46:11.700Z,25.20
2018-03-30T14:48:43.214Z,25.60
2018-03-30T14:51:38.496Z,25.50
2018-03-30T14:57:13.587Z,25.20
2018-03-30T14:59:45.799Z,24.80
2018-03-30T15:02:14.685Z,23.20
2018-03-30T15:04:49.524Z,23.20
2018-03-30T15:07:25.842Z,23.50
2018-03-30T15:09:58.971Z,23.10
2018-03-30T15:12:37.528Z,23.00
2018-03-30T15:15:10.169Z,24.20
2018-03-30T15:17:44.932Z,24.20
2018-03-30T15:20:21.203Z,24.70
2018-03-30T15:22:50.418Z,24.80
2018-03-30T15:25:23.126Z,24.70
2018-03-30T15:27:56.322Z,24.80
2018-03-30T15:30:27.485Z,25.10
2018-03-30T15:32:59.470Z,26.10
2018-03-30T15:38:26.526Z,25.90
2018-03-30T15:40:54.612Z,25.50
2018-03-30T15:43:24.802Z,26.00
2018-03-30T15:45:56.216Z,25.90
2018-03-30T15:48:24.559Z,26.90
2018-03-30T15:50:55.014Z,28.20
2018-03-30T15:53:22.627Z,28.20
2018-03-30T15:55:50.511Z,28.20
2018-03-30T15:58:20.262Z,27.80
2018-03-30T16:00:48.556Z,27.80
2018-03-30T16:03:16.338Z,28.20
2018-03-30T16:05:44.097Z,27.60
2018-03-30T16:08:12.207Z,27.30
2018-03-30T16:10:43.821Z,28.00
2018-03-30T16:13:12.101Z,28.00
2018-03-30T16:15:39.953Z,28.60
2018-03-30T16:18:07.774Z,28.60
2018-03-30T16:20:36.658Z,30.30
2018-03-30T16:23:04.888Z,30.30
2018-03-30T16:25:32.254Z,30.30
2018-03-30T16:27:59.490Z,30.10
2018-03-30T16:30:26.941Z,30.70
2018-03-30T16:32:54.574Z,31.10
2018-03-30T16:35:22.293Z,30.00
2018-03-30T16:37:49.662Z,30.40
2018-03-30T16:40:18.221Z,32.00
2018-03-30T16:42:45.776Z,31.90
2018-03-30T16:45:13.245Z,32.00
2018-03-30T16:47:40.588Z,32.90
2018-03-30T16:50:07.831Z,32.50
2018-03-30T16:52:35.196Z,32.70
2018-03-30T16:55:02.534Z,32.90
2018-03-30T16:57:30.212Z,35.30
2018-03-30T16:59:57.465Z,36.60
2018-03-30T17:02:24.824Z,37.30
2018-03-30T17:04:52.174Z,37.70
2018-03-30T17:07:20.746Z,38.20
2018-03-30T17:09:48.094Z,38.10
2018-03-30T17:12:15.679Z,38.00
2018-03-30T17:14:44.649Z,38.10
2018-03-30T17:17:11.999Z,38.10
2018-03-30T17:19:39.666Z,38.30
2018-03-30T17:22:07.318Z,39.00
2018-03-30T17:24:34.885Z,39.00
2018-03-30T17:27:02.239Z,39.60
2018-03-30T17:29:29.908Z,39.20
2018-03-30T17:31:57.369Z,39.40
2018-03-30T17:34:24.716Z,40.20
2018-03-30T17:36:52.276Z,39.60
2018-03-30T17:39:19.520Z,39.70
2018-03-30T17:41:46.980Z,39.70
2018-03-30T17:44:14.434Z,40.20
2018-03-30T17:46:42.002Z,40.10
2018-03-30T17:49:09.455Z,40.30
2018-03-30T17:51:37.134Z,40.60
2018-03-30T17:54:04.369Z,40.60
2018-03-30T17:56:32.052Z,40.60
2018-03-30T17:59:00.204Z,40.60
2018-03-30T18:01:27.548Z,40.60
2018-03-30T18:03:54.719Z,40.60
2018-03-30T18:06:22.754Z,40.70
2018-03-30T18:08:50.350Z,41.30
2018-03-30T18:11:17.795Z,41.20
2018-03-30T18:13:45.550Z,41.60
2018-03-30T18:16:13.114Z,41.60
2018-03-30T18:18:40.564Z,41.50
2018-03-30T18:21:07.934Z,41.50
2018-03-30T18:23:35.278Z,41.70
2018-03-30T18:26:02.843Z,41.70
2018-03-30T18:28:30.494Z,42.00
2018-03-30T18:30:58.129Z,42.00
2018-03-30T18:33:25.404Z,42.10
2018-03-30T18:35:53.096Z,41.90
2018-03-30T18:38:20.527Z,42.20
2018-03-30T18:40:47.879Z,42.80
2018-03-30T18:43:15.327Z,42.30
2018-03-30T18:45:42.482Z,42.70
2018-03-30T18:48:09.865Z,42.70
2018-03-30T18:50:37.329Z,42.50
2018-03-30T18:53:04.879Z,42.90
2018-03-30T18:55:32.435Z,43.20
2018-03-30T18:57:59.788Z,43.10
2018-03-30T19:00:27.125Z,42.90
2018-03-30T19:02:54.584Z,43.70
2018-03-30T19:05:22.350Z,43.90
2018-03-30T19:07:49.915Z,43.50
2018-03-30T19:10:17.364Z,44.00
2018-03-30T19:12:44.609Z,44.00
2018-03-30T19:15:12.066Z,44.30
2018-03-30T19:17:39.632Z,44.90
2018-03-30T19:20:07.349Z,44.70
2018-03-30T19:22:34.993Z,45.00
2018-03-30T19:25:03.330Z,45.80
2018-03-30T19:27:31.001Z,45.60
2018-03-30T19:29:58.265Z,45.70
2018-03-30T19:32:25.702Z,45.70
2018-03-30T19:34:53.179Z,46.10
2018-03-30T19:37:20.959Z,46.30
2018-03-30T19:39:49.194Z,47.10
2018-03-30T19:42:16.449Z,47.10
2018-03-30T19:44:44.004Z,47.20
2018-03-30T19:47:11.254Z,47.70
2018-03-30T19:49:38.510Z,48.00
2018-03-30T19:52:05.663Z,48.10
2018-03-30T19:54:33.126Z,48.10
2018-03-30T19:57:00.574Z,48.40
2018-03-30T19:59:27.924Z,48.10
2018-03-30T20:01:55.284Z,48.30
2018-03-30T20:04:22.635Z,48.50
2018-03-30T20:06:50.089Z,48.20
2018-03-30T20:09:17.679Z,48.50
2018-03-30T20:11:45.717Z,48.70
2018-03-30T20:14:14.087Z,49.00
2018-03-30T20:16:41.859Z,48.90
2018-03-30T20:19:09.325Z,48.90
2018-03-30T20:21:36.678Z,49.10
2018-03-30T20:24:04.129Z,49.60
2018-03-30T20:26:31.687Z,49.40
2018-03-30T20:28:59.042Z,49.80
2018-03-30T20:31:26.294Z,49.90
2018-03-30T20:33:53.977Z,50.30
2018-03-30T20:36:21.514Z,50.40
2018-03-30T20:38:48.769Z,50.70
2018-03-30T20:41:16.425Z,50.70
2018-03-30T20:43:43.675Z,51.20
2018-03-30T20:46:11.545Z,51.20
2018-03-30T20:48:39.064Z,51.40
2018-03-30T20:51:07.314Z,51.80
2018-03-30T20:53:35.669Z,51.50
2018-03-30T20:56:03.112Z,51.40
2018-03-30T20:58:30.742Z,51.30
2018-03-30T21:00:58.434Z,51.60
2018-03-30T21:03:25.790Z,51.70
2018-03-30T21:05:53.140Z,51.80
2018-03-30T21:08:20.547Z,51.70
2018-03-30T21:10:48.674Z,52.80
2018-03-30T21:13:16.340Z,52.70
2018-03-30T21:15:43.777Z,52.50
2018-03-30T21:18:11.344Z,52.70
2018-03-30T21:20:38.910Z,52.80
2018-03-30T21:23:06.259Z,53.00
2018-03-30T21:25:33.720Z,53.30
2018-03-30T21:28:01.483Z,53.30
2018-03-30T21:30:28.835Z,53.50
2018-03-30T21:32:56.294Z,53.20
2018-03-30T21:35:23.538Z,53.50
2018-03-30T21:37:51.204Z,54.00
2018-03-30T21:40:18.867Z,53.90
2018-03-30T21:42:46.424Z,54.00
2018-03-30T21:45:14.089Z,53.60
2018-03-30T21:47:41.649Z,53.60
2018-03-30T21:50:09.769Z,53.40
2018-03-30T21:52:37.966Z,53.40
2018-03-30T21:55:05.763Z,53.40
2018-03-30T21:57:34.045Z,52.90
2018-03-30T22:00:01.280Z,52.90
2018-03-30T22:02:28.738Z,53.00
2018-03-30T22:04:56.088Z,52.90
2018-03-30T22:07:23.659Z,53.50
2018-03-30T22:09:51.224Z,52.70
2018-03-30T22:12:18.564Z,52.80
2018-03-30T22:14:45.919Z,52.80
2018-03-30T22:17:13.274Z,52.80
2018-03-30T22:19:40.934Z,52.80
2018-03-30T22:22:08.408Z,52.80
2018-03-30T22:24:35.846Z,52.70
2018-03-30T22:27:03.334Z,52.80
2018-03-30T22:29:30.654Z,52.70
2018-03-30T22:31:57.844Z,53.20
2018-03-30T22:34:26.396Z,53.20
2018-03-30T22:36:53.659Z,53.20
2018-03-30T22:39:20.993Z,53.30
2018-03-30T22:41:48.349Z,53.20
2018-03-30T22:44:15.605Z,53.00
2018-03-30T22:46:42.954Z,53.10
2018-03-30T22:49:10.614Z,53.20
2018-03-30T22:51:37.998Z,53.80
2018-03-30T22:54:05.429Z,53.40
2018-03-30T22:56:32.984Z,52.90
2018-03-30T22:59:00.239Z,52.90
2018-03-30T23:01:27.505Z,53.00
2018-03-30T23:03:55.348Z,53.20
2018-03-30T23:06:22.813Z,53.20
2018-03-30T23:08:50.477Z,53.30
2018-03-30T23:11:17.868Z,53.10
2018-03-30T23:13:46.204Z,53.20
2018-03-30T23:16:13.459Z,53.10
2018-03-30T23:18:40.809Z,53.70
2018-03-30T23:21:08.164Z,53.60
2018-03-30T23:23:35.622Z,53.50
2018-03-30T23:26:03.082Z,54.00
2018-03-30T23:28:30.333Z,54.00
2018-03-30T23:30:57.732Z,54.50
2018-03-30T23:33:25.756Z,54.90
2018-03-30T23:35:52.918Z,54.80
2018-03-30T23:38:20.156Z,55.10
2018-03-30T23:40:47.723Z,55.30
2018-03-30T23:43:14.986Z,55.80
2018-03-30T23:45:42.425Z,55.90
2018-03-30T23:48:10.386Z,56.10
2018-03-30T23:50:37.755Z,56.50
2018-03-30T23:53:05.099Z,56.70
2018-03-30T23:55:32.559Z,57.10
2018-03-30T23:58:00.039Z,57.10
